sensor_id;sensor_type;location;lat;lon;timestamp;P1;durP1;ratioP1;P2;durP2;ratioP2
17848;SDS011;9050;48.746;9.232;2022-07-23T00:00:17;0.10;;;0.10;;
17848;SDS011;9050;48.746;9.232;2022-07-23T00:02:45;0.00;;;0.00;;
17848;SDS011;9050;48.746;9.232;2022-07-23T00:05:12;0.00;;;0.00;;
17848;SDS011;9050;48.746;9.232;2022-07-23T00:07:39;0.08;;;0.08;;
17848;SDS011;9050;48.746;9.232;2022-07-23T00:10:06;0.00;;;0.00;;
17848;SDS011;9050;48.746;9.232;2022-07-23T00:12:35;0.00;;;0.00;;
17848;SDS011;9050;48.746;9.232;2022-07-23T00:15:04;0.10;;;0.10;;
17848;SDS011;9050;48.746;9.232;2022-07-23T00:17:33;0.10;;;0.10;;
17848;SDS011;9050;48.746;9.232;2022-07-23T00:20:00;0.03;;;0.03;;
17848;SDS011;9050;48.746;9.232;2022-07-23T00:22:27;0.00;;;0.00;;
17848;SDS011;9050;48.746;9.232;2022-07-23T00:24:55;0.10;;;0.10;;
17848;SDS011;9050;48.746;9.232;2022-07-23T00:27:21;0.10;;;0.10;;
17848;SDS011;9050;48.746;9.232;2022-07-23T00:29:49;0.00;;;0.00;;
17848;SDS011;9050;48.746;9.232;2022-07-23T00:32:17;0.10;;;0.10;;
17848;SDS011;9050;48.746;9.232;2022-07-23T00:34:44;0.10;;;0.10;;
17848;SDS011;9050;48.746;9.232;2022-07-23T00:37:11;0.10;;;0.10;;
17848;SDS011;9050;48.746;9.232;2022-07-23T00:39:38;0.00;;;0.00;;
17848;SDS011;9050;48.746;9.232;2022-07-23T00:42:05;0.08;;;0.08;;
17848;SDS011;9050;48.746;9.232;2022-07-23T00:44:32;0.10;;;0.10;;
17848;SDS011;9050;48.746;9.232;2022-07-23T00:46:59;0.10;;;0.10;;
17848;SDS011;9050;48.746;9.232;2022-07-23T00:49:28;0.00;;;0.00;;
17848;SDS011;9050;48.746;9.232;2022-07-23T00:51:56;0.05;;;0.05;;
17848;SDS011;9050;48.746;9.232;2022-07-23T00:54:27;0.10;;;0.10;;
17848;SDS011;9050;48.746;9.232;2022-07-23T00:56:55;0.10;;;0.10;;
17848;SDS011;9050;48.746;9.232;2022-07-23T00:59:22;0.00;;;0.00;;
17848;SDS011;9050;48.746;9.232;2022-07-23T01:01:48;0.10;;;0.10;;
17848;SDS011;9050;48.746;9.232;2022-07-23T01:04:16;0.10;;;0.10;;
17848;SDS011;9050;48.746;9.232;2022-07-23T01:06:45;0.10;;;0.10;;
17848;SDS011;9050;48.746;9.232;2022-07-23T01:09:12;0.10;;;0.10;;
17848;SDS011;9050;48.746;9.232;2022-07-23T01:11:39;0.10;;;0.10;;
17848;SDS011;9050;48.746;9.232;2022-07-23T01:14:08;0.00;;;0.00;;
17848;SDS011;9050;48.746;9.232;2022-07-23T01:16:39;0.10;;;0.10;;
17848;SDS011;9050;48.746;9.232;2022-07-23T01:19:06;0.10;;;0.10;;
17848;SDS011;9050;48.746;9.232;2022-07-23T01:21:35;0.10;;;0.10;;
17848;SDS011;9050;48.746;9.232;2022-07-23T01:24:06;0.10;;;0.10;;
17848;SDS011;9050;48.746;9.232;2022-07-23T01:26:33;0.05;;;0.05;;
17848;SDS011;9050;48.746;9.232;2022-07-23T01:29:01;0.10;;;0.10;;
17848;SDS011;9050;48.746;9.232;2022-07-23T01:31:29;0.10;;;0.10;;
17848;SDS011;9050;48.746;9.232;2022-07-23T01:33:56;0.10;;;0.10;;
17848;SDS011;9050;48.746;9.232;2022-07-23T01:36:23;0.10;;;0.10;;
17848;SDS011;9050;48.746;9.232;2022-07-23T01:38:50;0.10;;;0.10;;
17848;SDS011;9050;48.746;9.232;2022-07-23T01:41:18;0.10;;;0.10;;
17848;SDS011;9050;48.746;9.232;2022-07-23T01:43:46;0.10;;;0.10;;
17848;SDS011;9050;48.746;9.232;2022-07-23T01:46:13;0.10;;;0.10;;
17848;SDS011;9050;48.746;9.232;2022-07-23T01:48:40;0.10;;;0.10;;
17848;SDS011;9050;48.746;9.232;2022-07-23T01:51:07;0.10;;;0.10;;
17848;SDS011;9050;48.746;9.232;2022-07-23T01:53:34;0.10;;;0.10;;
17848;SDS011;9050;48.746;9.232;2022-07-23T01:56:01;0.10;;;0.10;;
17848;SDS011;9050;48.746;9.232;2022-07-23T01:58:30;0.10;;;0.10;;
17848;SDS011;9050;48.746;9.232;2022-07-23T02:00:57;0.10;;;0.10;;
17848;SDS011;9050;48.746;9.232;2022-07-23T02:03:24;0.10;;;0.10;;
17848;SDS011;9050;48.746;9.232;2022-07-23T02:05:51;0.10;;;0.10;;
17848;SDS011;9050;48.746;9.232;2022-07-23T02:08:19;0.10;;;0.10;;
17848;SDS011;9050;48.746;9.232;2022-07-23T02:10:45;0.10;;;0.10;;
17848;SDS011;9050;48.746;9.232;2022-07-23T02:13:13;0.10;;;0.10;;
17848;SDS011;9050;48.746;9.232;2022-07-23T02:15:41;0.10;;;0.10;;
17848;SDS011;9050;48.746;9.232;2022-07-23T02:18:08;0.10;;;0.10;;
17848;SDS011;9050;48.746;9.232;2022-07-23T02:20:35;0.10;;;0.10;;
17848;SDS011;9050;48.746;9.232;2022-07-23T02:23:03;0.10;;;0.10;;
17848;SDS011;9050;48.746;9.232;2022-07-23T02:25:31;0.10;;;0.10;;
17848;SDS011;9050;48.746;9.232;2022-07-23T02:27:58;0.10;;;0.10;;
17848;SDS011;9050;48.746;9.232;2022-07-23T02:30:25;0.10;;;0.10;;
17848;SDS011;9050;48.746;9.232;2022-07-23T02:32:54;0.10;;;0.10;;
17848;SDS011;9050;48.746;9.232;2022-07-23T02:35:21;0.10;;;0.10;;
17848;SDS011;9050;48.746;9.232;2022-07-23T02:37:48;0.10;;;0.10;;
17848;SDS011;9050;48.746;9.232;2022-07-23T02:40:15;0.10;;;0.10;;
17848;SDS011;9050;48.746;9.232;2022-07-23T02:42:43;0.10;;;0.10;;
17848;SDS011;9050;48.746;9.232;2022-07-23T02:45:11;0.10;;;0.10;;
17848;SDS011;9050;48.746;9.232;2022-07-23T02:47:38;0.20;;;0.20;;
17848;SDS011;9050;48.746;9.232;2022-07-23T02:50:07;0.10;;;0.10;;
17848;SDS011;9050;48.746;9.232;2022-07-23T02:52:35;0.10;;;0.10;;
17848;SDS011;9050;48.746;9.232;2022-07-23T02:55:03;0.10;;;0.10;;
17848;SDS011;9050;48.746;9.232;2022-07-23T02:57:30;0.10;;;0.10;;
17848;SDS011;9050;48.746;9.232;2022-07-23T02:59:57;0.10;;;0.10;;
17848;SDS011;9050;48.746;9.232;2022-07-23T03:02:24;0.15;;;0.15;;
17848;SDS011;9050;48.746;9.232;2022-07-23T03:04:51;0.10;;;0.10;;
17848;SDS011;9050;48.746;9.232;2022-07-23T03:07:19;0.20;;;0.20;;
17848;SDS011;9050;48.746;9.232;2022-07-23T03:09:46;0.10;;;0.10;;
17848;SDS011;9050;48.746;9.232;2022-07-23T03:12:13;0.20;;;0.20;;
17848;SDS011;9050;48.746;9.232;2022-07-23T03:14:40;0.10;;;0.10;;
17848;SDS011;9050;48.746;9.232;2022-07-23T03:17:07;0.10;;;0.10;;
17848;SDS011;9050;48.746;9.232;2022-07-23T03:19:34;0.20;;;0.20;;
17848;SDS011;9050;48.746;9.232;2022-07-23T03:22:01;0.10;;;0.10;;
17848;SDS011;9050;48.746;9.232;2022-07-23T03:24:30;0.10;;;0.10;;
17848;SDS011;9050;48.746;9.232;2022-07-23T03:27:10;0.10;;;0.10;;
17848;SDS011;9050;48.746;9.232;2022-07-23T03:29:37;0.10;;;0.10;;
17848;SDS011;9050;48.746;9.232;2022-07-23T03:32:04;0.10;;;0.10;;
17848;SDS011;9050;48.746;9.232;2022-07-23T03:34:31;0.20;;;0.20;;
17848;SDS011;9050;48.746;9.232;2022-07-23T03:36:58;0.10;;;0.10;;
17848;SDS011;9050;48.746;9.232;2022-07-23T03:39:25;0.10;;;0.10;;
17848;SDS011;9050;48.746;9.232;2022-07-23T03:41:53;0.20;;;0.20;;
17848;SDS011;9050;48.746;9.232;2022-07-23T03:44:20;0.20;;;0.20;;
17848;SDS011;9050;48.746;9.232;2022-07-23T03:46:47;0.13;;;0.13;;
17848;SDS011;9050;48.746;9.232;2022-07-23T03:49:14;0.20;;;0.20;;
17848;SDS011;9050;48.746;9.232;2022-07-23T03:51:41;0.20;;;0.20;;
17848;SDS011;9050;48.746;9.232;2022-07-23T03:54:08;0.17;;;0.17;;
17848;SDS011;9050;48.746;9.232;2022-07-23T03:56:35;0.20;;;0.20;;
17848;SDS011;9050;48.746;9.232;2022-07-23T03:59:04;0.20;;;0.20;;
17848;SDS011;9050;48.746;9.232;2022-07-23T04:01:31;0.20;;;0.20;;
17848;SDS011;9050;48.746;9.232;2022-07-23T04:03:58;0.10;;;0.10;;
17848;SDS011;9050;48.746;9.232;2022-07-23T04:06:25;0.13;;;0.13;;
17848;SDS011;9050;48.746;9.232;2022-07-23T04:08:52;0.10;;;0.10;;
17848;SDS011;9050;48.746;9.232;2022-07-23T04:11:19;0.10;;;0.10;;
17848;SDS011;9050;48.746;9.232;2022-07-23T04:13:46;0.10;;;0.10;;
17848;SDS011;9050;48.746;9.232;2022-07-23T04:16:15;0.20;;;0.20;;
17848;SDS011;9050;48.746;9.232;2022-07-23T04:18:42;0.20;;;0.20;;
17848;SDS011;9050;48.746;9.232;2022-07-23T04:21:09;0.10;;;0.10;;
17848;SDS011;9050;48.746;9.232;2022-07-23T04:23:36;0.20;;;0.20;;
17848;SDS011;9050;48.746;9.232;2022-07-23T04:26:03;0.13;;;0.13;;
17848;SDS011;9050;48.746;9.232;2022-07-23T04:28:30;0.10;;;0.10;;
17848;SDS011;9050;48.746;9.232;2022-07-23T04:30:57;0.10;;;0.10;;
17848;SDS011;9050;48.746;9.232;2022-07-23T04:33:26;0.20;;;0.20;;
17848;SDS011;9050;48.746;9.232;2022-07-23T04:35:53;0.10;;;0.10;;
17848;SDS011;9050;48.746;9.232;2022-07-23T04:38:20;0.20;;;0.20;;
17848;SDS011;9050;48.746;9.232;2022-07-23T04:40:46;0.20;;;0.20;;
17848;SDS011;9050;48.746;9.232;2022-07-23T04:43:13;0.20;;;0.20;;
17848;SDS011;9050;48.746;9.232;2022-07-23T04:45:40;0.15;;;0.15;;
17848;SDS011;9050;48.746;9.232;2022-07-23T04:48:07;0.10;;;0.10;;
17848;SDS011;9050;48.746;9.232;2022-07-23T04:50:35;0.10;;;0.10;;
17848;SDS011;9050;48.746;9.232;2022-07-23T04:53:02;0.20;;;0.20;;
17848;SDS011;9050;48.746;9.232;2022-07-23T04:55:29;0.10;;;0.10;;
17848;SDS011;9050;48.746;9.232;2022-07-23T04:57:56;0.10;;;0.10;;
17848;SDS011;9050;48.746;9.232;2022-07-23T05:00:23;0.10;;;0.10;;
17848;SDS011;9050;48.746;9.232;2022-07-23T05:02:50;0.10;;;0.10;;
17848;SDS011;9050;48.746;9.232;2022-07-23T05:05:17;0.10;;;0.10;;
17848;SDS011;9050;48.746;9.232;2022-07-23T05:07:46;0.10;;;0.10;;
17848;SDS011;9050;48.746;9.232;2022-07-23T05:10:12;0.10;;;0.10;;
17848;SDS011;9050;48.746;9.232;2022-07-23T05:12:39;0.10;;;0.10;;
17848;SDS011;9050;48.746;9.232;2022-07-23T05:15:06;0.10;;;0.10;;
17848;SDS011;9050;48.746;9.232;2022-07-23T05:17:34;0.10;;;0.10;;
17848;SDS011;9050;48.746;9.232;2022-07-23T05:20:01;0.10;;;0.10;;
17848;SDS011;9050;48.746;9.232;2022-07-23T05:22:28;0.10;;;0.10;;
17848;SDS011;9050;48.746;9.232;2022-07-23T05:24:57;0.00;;;0.00;;
17848;SDS011;9050;48.746;9.232;2022-07-23T05:27:24;0.00;;;0.00;;
17848;SDS011;9050;48.746;9.232;2022-07-23T05:29:51;0.03;;;0.03;;
17848;SDS011;9050;48.746;9.232;2022-07-23T05:32:18;0.00;;;0.00;;
17848;SDS011;9050;48.746;9.232;2022-07-23T05:34:45;0.00;;;0.00;;
17848;SDS011;9050;48.746;9.232;2022-07-23T05:37:12;0.00;;;0.00;;
17848;SDS011;9050;48.746;9.232;2022-07-23T05:39:39;0.00;;;0.00;;
17848;SDS011;9050;48.746;9.232;2022-07-23T05:42:08;0.00;;;0.00;;
17848;SDS011;9050;48.746;9.232;2022-07-23T05:44:35;0.00;;;0.00;;
17848;SDS011;9050;48.746;9.232;2022-07-23T05:47:01;0.00;;;0.00;;
17848;SDS011;9050;48.746;9.232;2022-07-23T05:49:29;0.00;;;0.00;;
17848;SDS011;9050;48.746;9.232;2022-07-23T05:51:56;0.00;;;0.00;;
17848;SDS011;9050;48.746;9.232;2022-07-23T05:54:23;0.10;;;0.10;;
17848;SDS011;9050;48.746;9.232;2022-07-23T05:56:49;0.00;;;0.00;;
17848;SDS011;9050;48.746;9.232;2022-07-23T05:59:19;0.00;;;0.00;;
17848;SDS011;9050;48.746;9.232;2022-07-23T06:01:45;0.00;;;0.00;;
17848;SDS011;9050;48.746;9.232;2022-07-23T06:04:12;0.00;;;0.00;;
17848;SDS011;9050;48.746;9.232;2022-07-23T06:06:39;0.08;;;0.08;;
17848;SDS011;9050;48.746;9.232;2022-07-23T06:09:06;0.00;;;0.00;;
17848;SDS011;9050;48.746;9.232;2022-07-23T06:11:33;0.10;;;0.10;;
17848;SDS011;9050;48.746;9.232;2022-07-23T06:14:00;0.00;;;0.00;;
17848;SDS011;9050;48.746;9.232;2022-07-23T06:16:29;0.03;;;0.03;;
17848;SDS011;9050;48.746;9.232;2022-07-23T06:18:56;0.00;;;0.00;;
17848;SDS011;9050;48.746;9.232;2022-07-23T06:21:23;0.08;;;0.08;;
17848;SDS011;9050;48.746;9.232;2022-07-23T06:23:50;0.10;;;0.10;;
17848;SDS011;9050;48.746;9.232;2022-07-23T06:26:17;0.00;;;0.00;;
17848;SDS011;9050;48.746;9.232;2022-07-23T06:28:44;0.00;;;0.00;;
17848;SDS011;9050;48.746;9.232;2022-07-23T06:31:11;0.00;;;0.00;;
17848;SDS011;9050;48.746;9.232;2022-07-23T06:33:39;0.00;;;0.00;;
17848;SDS011;9050;48.746;9.232;2022-07-23T06:36:06;0.00;;;0.00;;
17848;SDS011;9050;48.746;9.232;2022-07-23T06:38:34;0.00;;;0.00;;
17848;SDS011;9050;48.746;9.232;2022-07-23T06:41:01;0.00;;;0.00;;
17848;SDS011;9050;48.746;9.232;2022-07-23T06:43:29;0.00;;;0.00;;
17848;SDS011;9050;48.746;9.232;2022-07-23T06:45:57;0.00;;;0.00;;
17848;SDS011;9050;48.746;9.232;2022-07-23T06:48:24;0.00;;;0.00;;
17848;SDS011;9050;48.746;9.232;2022-07-23T06:50:52;0.00;;;0.00;;
17848;SDS011;9050;48.746;9.232;2022-07-23T06:53:19;0.00;;;0.00;;
17848;SDS011;9050;48.746;9.232;2022-07-23T06:55:46;0.00;;;0.00;;
17848;SDS011;9050;48.746;9.232;2022-07-23T06:58:13;0.00;;;0.00;;
17848;SDS011;9050;48.746;9.232;2022-07-23T07:00:40;0.00;;;0.00;;
17848;SDS011;9050;48.746;9.232;2022-07-23T07:03:07;0.00;;;0.00;;
17848;SDS011;9050;48.746;9.232;2022-07-23T07:05:34;0.00;;;0.00;;
17848;SDS011;9050;48.746;9.232;2022-07-23T07:08:02;0.00;;;0.00;;
17848;SDS011;9050;48.746;9.232;2022-07-23T07:10:30;0.00;;;0.00;;
17848;SDS011;9050;48.746;9.232;2022-07-23T07:12:56;0.00;;;0.00;;
17848;SDS011;9050;48.746;9.232;2022-07-23T07:15:23;0.00;;;0.00;;
17848;SDS011;9050;48.746;9.232;2022-07-23T07:17:50;0.00;;;0.00;;
17848;SDS011;9050;48.746;9.232;2022-07-23T07:20:17;0.10;;;0.10;;
17848;SDS011;9050;48.746;9.232;2022-07-23T07:22:44;0.10;;;0.10;;
17848;SDS011;9050;48.746;9.232;2022-07-23T07:25:13;0.00;;;0.00;;
17848;SDS011;9050;48.746;9.232;2022-07-23T07:27:40;0.10;;;0.10;;
17848;SDS011;9050;48.746;9.232;2022-07-23T07:30:09;0.10;;;0.10;;
17848;SDS011;9050;48.746;9.232;2022-07-23T07:32:37;0.10;;;0.10;;
17848;SDS011;9050;48.746;9.232;2022-07-23T07:35:04;0.00;;;0.00;;
17848;SDS011;9050;48.746;9.232;2022-07-23T07:37:31;0.10;;;0.10;;
17848;SDS011;9050;48.746;9.232;2022-07-23T07:39:58;0.10;;;0.10;;
17848;SDS011;9050;48.746;9.232;2022-07-23T07:42:26;0.10;;;0.10;;
17848;SDS011;9050;48.746;9.232;2022-07-23T07:44:54;0.00;;;0.00;;
17848;SDS011;9050;48.746;9.232;2022-07-23T07:47:20;0.10;;;0.10;;
17848;SDS011;9050;48.746;9.232;2022-07-23T07:49:47;0.10;;;0.10;;
17848;SDS011;9050;48.746;9.232;2022-07-23T07:52:14;0.10;;;0.10;;
17848;SDS011;9050;48.746;9.232;2022-07-23T07:54:41;0.00;;;0.00;;
17848;SDS011;9050;48.746;9.232;2022-07-23T07:57:08;0.00;;;0.00;;
17848;SDS011;9050;48.746;9.232;2022-07-23T07:59:37;0.00;;;0.00;;
17848;SDS011;9050;48.746;9.232;2022-07-23T08:02:03;0.00;;;0.00;;
17848;SDS011;9050;48.746;9.232;2022-07-23T08:04:30;0.00;;;0.00;;
17848;SDS011;9050;48.746;9.232;2022-07-23T08:06:57;0.00;;;0.00;;
17848;SDS011;9050;48.746;9.232;2022-07-23T08:09:24;0.00;;;0.00;;
17848;SDS011;9050;48.746;9.232;2022-07-23T08:11:51;0.00;;;0.00;;
17848;SDS011;9050;48.746;9.232;2022-07-23T08:14:18;0.00;;;0.00;;
17848;SDS011;9050;48.746;9.232;2022-07-23T08:16:46;0.00;;;0.00;;
17848;SDS011;9050;48.746;9.232;2022-07-23T08:19:13;0.00;;;0.00;;
17848;SDS011;9050;48.746;9.232;2022-07-23T08:21:40;0.00;;;0.00;;
17848;SDS011;9050;48.746;9.232;2022-07-23T08:24:07;0.00;;;0.00;;
17848;SDS011;9050;48.746;9.232;2022-07-23T08:26:34;0.00;;;0.00;;
17848;SDS011;9050;48.746;9.232;2022-07-23T08:29:01;0.00;;;0.00;;
17848;SDS011;9050;48.746;9.232;2022-07-23T08:31:28;0.00;;;0.00;;
17848;SDS011;9050;48.746;9.232;2022-07-23T08:33:56;0.00;;;0.00;;
17848;SDS011;9050;48.746;9.232;2022-07-23T08:36:23;0.00;;;0.00;;
17848;SDS011;9050;48.746;9.232;2022-07-23T08:38:52;0.00;;;0.00;;
17848;SDS011;9050;48.746;9.232;2022-07-23T08:41:19;0.00;;;0.00;;
17848;SDS011;9050;48.746;9.232;2022-07-23T08:43:46;0.00;;;0.00;;
17848;SDS011;9050;48.746;9.232;2022-07-23T08:46:13;0.00;;;0.00;;
17848;SDS011;9050;48.746;9.232;2022-07-23T08:48:43;0.00;;;0.00;;
17848;SDS011;9050;48.746;9.232;2022-07-23T08:51:14;0.00;;;0.00;;
17848;SDS011;9050;48.746;9.232;2022-07-23T08:53:41;0.00;;;0.00;;
17848;SDS011;9050;48.746;9.232;2022-07-23T08:56:10;0.00;;;0.00;;
17848;SDS011;9050;48.746;9.232;2022-07-23T08:58:37;0.00;;;0.00;;
17848;SDS011;9050;48.746;9.232;2022-07-23T09:01:04;0.00;;;0.00;;
17848;SDS011;9050;48.746;9.232;2022-07-23T09:03:32;0.00;;;0.00;;
17848;SDS011;9050;48.746;9.232;2022-07-23T09:06:00;0.00;;;0.00;;
17848;SDS011;9050;48.746;9.232;2022-07-23T09:08:33;0.00;;;0.00;;
17848;SDS011;9050;48.746;9.232;2022-07-23T09:11:02;0.00;;;0.00;;
17848;SDS011;9050;48.746;9.232;2022-07-23T09:13:31;0.00;;;0.00;;
17848;SDS011;9050;48.746;9.232;2022-07-23T09:16:05;0.00;;;0.00;;
17848;SDS011;9050;48.746;9.232;2022-07-23T09:18:38;0.00;;;0.00;;
17848;SDS011;9050;48.746;9.232;2022-07-23T09:21:12;0.00;;;0.00;;
17848;SDS011;9050;48.746;9.232;2022-07-23T09:23:53;0.00;;;0.00;;
17848;SDS011;9050;48.746;9.232;2022-07-23T09:26:23;0.00;;;0.00;;
17848;SDS011;9050;48.746;9.232;2022-07-23T09:29:02;0.00;;;0.00;;
17848;SDS011;9050;48.746;9.232;2022-07-23T09:31:42;0.00;;;0.00;;
17848;SDS011;9050;48.746;9.232;2022-07-23T09:34:12;0.00;;;0.00;;
17848;SDS011;9050;48.746;9.232;2022-07-23T09:36:40;0.00;;;0.00;;
17848;SDS011;9050;48.746;9.232;2022-07-23T09:39:09;0.00;;;0.00;;
17848;SDS011;9050;48.746;9.232;2022-07-23T09:41:38;0.00;;;0.00;;
17848;SDS011;9050;48.746;9.232;2022-07-23T09:44:06;0.00;;;0.00;;
17848;SDS011;9050;48.746;9.232;2022-07-23T09:46:38;0.00;;;0.00;;
17848;SDS011;9050;48.746;9.232;2022-07-23T09:49:13;0.00;;;0.00;;
17848;SDS011;9050;48.746;9.232;2022-07-23T09:51:45;0.00;;;0.00;;
17848;SDS011;9050;48.746;9.232;2022-07-23T09:54:29;0.00;;;0.00;;
17848;SDS011;9050;48.746;9.232;2022-07-23T09:57:00;0.00;;;0.00;;
17848;SDS011;9050;48.746;9.232;2022-07-23T09:59:29;0.00;;;0.00;;
17848;SDS011;9050;48.746;9.232;2022-07-23T10:01:58;0.00;;;0.00;;
17848;SDS011;9050;48.746;9.232;2022-07-23T10:04:26;0.00;;;0.00;;
17848;SDS011;9050;48.746;9.232;2022-07-23T10:06:54;0.00;;;0.00;;
17848;SDS011;9050;48.746;9.232;2022-07-23T10:09:24;0.00;;;0.00;;
17848;SDS011;9050;48.746;9.232;2022-07-23T10:11:55;0.00;;;0.00;;
17848;SDS011;9050;48.746;9.232;2022-07-23T10:14:26;0.00;;;0.00;;
17848;SDS011;9050;48.746;9.232;2022-07-23T10:16:56;0.00;;;0.00;;
17848;SDS011;9050;48.746;9.232;2022-07-23T10:19:23;0.00;;;0.00;;
17848;SDS011;9050;48.746;9.232;2022-07-23T10:21:51;0.00;;;0.00;;
17848;SDS011;9050;48.746;9.232;2022-07-23T10:24:23;0.00;;;0.00;;
17848;SDS011;9050;48.746;9.232;2022-07-23T10:27:07;0.00;;;0.00;;
17848;SDS011;9050;48.746;9.232;2022-07-23T10:29:47;0.00;;;0.00;;
17848;SDS011;9050;48.746;9.232;2022-07-23T10:32:21;0.00;;;0.00;;
17848;SDS011;9050;48.746;9.232;2022-07-23T10:34:58;0.00;;;0.00;;
17848;SDS011;9050;48.746;9.232;2022-07-23T10:37:34;0.00;;;0.00;;
17848;SDS011;9050;48.746;9.232;2022-07-23T10:40:10;0.00;;;0.00;;
17848;SDS011;9050;48.746;9.232;2022-07-23T10:42:39;0.00;;;0.00;;
17848;SDS011;9050;48.746;9.232;2022-07-23T10:45:26;0.00;;;0.00;;
17848;SDS011;9050;48.746;9.232;2022-07-23T10:47:55;0.00;;;0.00;;
17848;SDS011;9050;48.746;9.232;2022-07-23T10:50:37;0.00;;;0.00;;
17848;SDS011;9050;48.746;9.232;2022-07-23T10:53:07;0.00;;;0.00;;
17848;SDS011;9050;48.746;9.232;2022-07-23T10:55:42;0.00;;;0.00;;
17848;SDS011;9050;48.746;9.232;2022-07-23T10:58:19;0.00;;;0.00;;
17848;SDS011;9050;48.746;9.232;2022-07-23T11:00:47;0.00;;;0.00;;
17848;SDS011;9050;48.746;9.232;2022-07-23T11:03:30;0.00;;;0.00;;
17848;SDS011;9050;48.746;9.232;2022-07-23T11:06:00;0.00;;;0.00;;
17848;SDS011;9050;48.746;9.232;2022-07-23T11:08:28;0.00;;;0.00;;
17848;SDS011;9050;48.746;9.232;2022-07-23T11:11:07;0.00;;;0.00;;
17848;SDS011;9050;48.746;9.232;2022-07-23T11:13:36;0.00;;;0.00;;
17848;SDS011;9050;48.746;9.232;2022-07-23T11:19:12;0.00;;;0.00;;
17848;SDS011;9050;48.746;9.232;2022-07-23T11:24:24;0.00;;;0.00;;
17848;SDS011;9050;48.746;9.232;2022-07-23T11:27:05;0.00;;;0.00;;
17848;SDS011;9050;48.746;9.232;2022-07-23T11:29:42;0.00;;;0.00;;
17848;SDS011;9050;48.746;9.232;2022-07-23T11:32:30;0.00;;;0.00;;
17848;SDS011;9050;48.746;9.232;2022-07-23T11:34:59;0.00;;;0.00;;
17848;SDS011;9050;48.746;9.232;2022-07-23T11:37:28;0.00;;;0.00;;
17848;SDS011;9050;48.746;9.232;2022-07-23T11:40:00;0.00;;;0.00;;
17848;SDS011;9050;48.746;9.232;2022-07-23T11:42:32;0.00;;;0.00;;
17848;SDS011;9050;48.746;9.232;2022-07-23T11:44:59;0.00;;;0.00;;
17848;SDS011;9050;48.746;9.232;2022-07-23T11:47:26;0.00;;;0.00;;
17848;SDS011;9050;48.746;9.232;2022-07-23T11:49:54;0.00;;;0.00;;
17848;SDS011;9050;48.746;9.232;2022-07-23T11:52:22;0.00;;;0.00;;
17848;SDS011;9050;48.746;9.232;2022-07-23T11:54:51;0.00;;;0.00;;
17848;SDS011;9050;48.746;9.232;2022-07-23T11:57:19;0.00;;;0.00;;
17848;SDS011;9050;48.746;9.232;2022-07-23T11:59:51;0.00;;;0.00;;
17848;SDS011;9050;48.746;9.232;2022-07-23T12:02:23;0.00;;;0.00;;
17848;SDS011;9050;48.746;9.232;2022-07-23T12:04:51;0.00;;;0.00;;
17848;SDS011;9050;48.746;9.232;2022-07-23T12:07:28;0.00;;;0.00;;
17848;SDS011;9050;48.746;9.232;2022-07-23T12:09:57;0.00;;;0.00;;
17848;SDS011;9050;48.746;9.232;2022-07-23T12:12:25;0.00;;;0.00;;
17848;SDS011;9050;48.746;9.232;2022-07-23T12:14:54;0.00;;;0.00;;
17848;SDS011;9050;48.746;9.232;2022-07-23T12:17:27;0.00;;;0.00;;
17848;SDS011;9050;48.746;9.232;2022-07-23T12:19:54;0.00;;;0.00;;
17848;SDS011;9050;48.746;9.232;2022-07-23T12:22:23;0.00;;;0.00;;
17848;SDS011;9050;48.746;9.232;2022-07-23T12:24:54;0.00;;;0.00;;
17848;SDS011;9050;48.746;9.232;2022-07-23T12:27:23;0.00;;;0.00;;
17848;SDS011;9050;48.746;9.232;2022-07-23T12:29:50;0.00;;;0.00;;
17848;SDS011;9050;48.746;9.232;2022-07-23T12:32:22;0.00;;;0.00;;
17848;SDS011;9050;48.746;9.232;2022-07-23T12:35:01;0.00;;;0.00;;
17848;SDS011;9050;48.746;9.232;2022-07-23T12:37:31;0.10;;;0.10;;
17848;SDS011;9050;48.746;9.232;2022-07-23T12:42:44;0.00;;;0.00;;
17848;SDS011;9050;48.746;9.232;2022-07-23T12:45:12;0.00;;;0.00;;
17848;SDS011;9050;48.746;9.232;2022-07-23T12:50:44;0.00;;;0.00;;
17848;SDS011;9050;48.746;9.232;2022-07-23T12:53:16;0.00;;;0.00;;
17848;SDS011;9050;48.746;9.232;2022-07-23T12:55:44;0.00;;;0.00;;
17848;SDS011;9050;48.746;9.232;2022-07-23T12:58:13;0.00;;;0.00;;
17848;SDS011;9050;48.746;9.232;2022-07-23T13:00:59;0.00;;;0.00;;
17848;SDS011;9050;48.746;9.232;2022-07-23T13:03:33;0.00;;;0.00;;
17848;SDS011;9050;48.746;9.232;2022-07-23T13:06:02;0.00;;;0.00;;
17848;SDS011;9050;48.746;9.232;2022-07-23T13:08:31;0.00;;;0.00;;
17848;SDS011;9050;48.746;9.232;2022-07-23T13:11:00;0.00;;;0.00;;
17848;SDS011;9050;48.746;9.232;2022-07-23T13:13:28;0.00;;;0.00;;
17848;SDS011;9050;48.746;9.232;2022-07-23T13:15:57;0.00;;;0.00;;
17848;SDS011;9050;48.746;9.232;2022-07-23T13:18:25;0.00;;;0.00;;
17848;SDS011;9050;48.746;9.232;2022-07-23T13:20:54;0.00;;;0.00;;
17848;SDS011;9050;48.746;9.232;2022-07-23T13:23:21;0.00;;;0.00;;
17848;SDS011;9050;48.746;9.232;2022-07-23T13:25:49;0.00;;;0.00;;
17848;SDS011;9050;48.746;9.232;2022-07-23T13:28:16;0.00;;;0.00;;
17848;SDS011;9050;48.746;9.232;2022-07-23T13:30:44;0.00;;;0.00;;
17848;SDS011;9050;48.746;9.232;2022-07-23T13:33:14;0.00;;;0.00;;
17848;SDS011;9050;48.746;9.232;2022-07-23T13:35:41;0.00;;;0.00;;
17848;SDS011;9050;48.746;9.232;2022-07-23T13:38:10;0.00;;;0.00;;
17848;SDS011;9050;48.746;9.232;2022-07-23T13:40:37;0.00;;;0.00;;
17848;SDS011;9050;48.746;9.232;2022-07-23T13:43:07;0.00;;;0.00;;
17848;SDS011;9050;48.746;9.232;2022-07-23T13:45:35;0.00;;;0.00;;
17848;SDS011;9050;48.746;9.232;2022-07-23T13:48:02;0.00;;;0.00;;
17848;SDS011;9050;48.746;9.232;2022-07-23T13:50:30;0.00;;;0.00;;
17848;SDS011;9050;48.746;9.232;2022-07-23T13:52:57;0.00;;;0.00;;
17848;SDS011;9050;48.746;9.232;2022-07-23T13:55:28;0.00;;;0.00;;
17848;SDS011;9050;48.746;9.232;2022-07-23T13:57:55;0.00;;;0.00;;
17848;SDS011;9050;48.746;9.232;2022-07-23T14:00:22;0.00;;;0.00;;
17848;SDS011;9050;48.746;9.232;2022-07-23T14:02:50;0.00;;;0.00;;
17848;SDS011;9050;48.746;9.232;2022-07-23T14:05:17;0.00;;;0.00;;
17848;SDS011;9050;48.746;9.232;2022-07-23T14:07:44;0.00;;;0.00;;
17848;SDS011;9050;48.746;9.232;2022-07-23T14:10:12;0.00;;;0.00;;
17848;SDS011;9050;48.746;9.232;2022-07-23T14:12:40;0.00;;;0.00;;
17848;SDS011;9050;48.746;9.232;2022-07-23T14:15:08;0.00;;;0.00;;
17848;SDS011;9050;48.746;9.232;2022-07-23T14:17:35;0.00;;;0.00;;
17848;SDS011;9050;48.746;9.232;2022-07-23T14:20:03;0.00;;;0.00;;
17848;SDS011;9050;48.746;9.232;2022-07-23T14:22:31;0.00;;;0.00;;
17848;SDS011;9050;48.746;9.232;2022-07-23T14:24:58;0.00;;;0.00;;
17848;SDS011;9050;48.746;9.232;2022-07-23T14:27:25;0.00;;;0.00;;
17848;SDS011;9050;48.746;9.232;2022-07-23T14:29:55;0.00;;;0.00;;
17848;SDS011;9050;48.746;9.232;2022-07-23T14:32:22;0.00;;;0.00;;
17848;SDS011;9050;48.746;9.232;2022-07-23T14:34:49;0.00;;;0.00;;
17848;SDS011;9050;48.746;9.232;2022-07-23T14:37:16;0.00;;;0.00;;
17848;SDS011;9050;48.746;9.232;2022-07-23T14:39:44;0.00;;;0.00;;
17848;SDS011;9050;48.746;9.232;2022-07-23T14:42:11;0.00;;;0.00;;
17848;SDS011;9050;48.746;9.232;2022-07-23T14:44:38;0.00;;;0.00;;
17848;SDS011;9050;48.746;9.232;2022-07-23T14:47:08;0.00;;;0.00;;
17848;SDS011;9050;48.746;9.232;2022-07-23T14:49:35;0.00;;;0.00;;
17848;SDS011;9050;48.746;9.232;2022-07-23T14:52:02;0.00;;;0.00;;
17848;SDS011;9050;48.746;9.232;2022-07-23T14:54:30;0.00;;;0.00;;
17848;SDS011;9050;48.746;9.232;2022-07-23T14:56:57;0.00;;;0.00;;
17848;SDS011;9050;48.746;9.232;2022-07-23T14:59:25;0.00;;;0.00;;
17848;SDS011;9050;48.746;9.232;2022-07-23T15:01:53;0.00;;;0.00;;
17848;SDS011;9050;48.746;9.232;2022-07-23T15:04:21;0.00;;;0.00;;
17848;SDS011;9050;48.746;9.232;2022-07-23T15:06:48;0.00;;;0.00;;
17848;SDS011;9050;48.746;9.232;2022-07-23T15:09:15;0.00;;;0.00;;
17848;SDS011;9050;48.746;9.232;2022-07-23T15:11:42;0.00;;;0.00;;
17848;SDS011;9050;48.746;9.232;2022-07-23T15:14:09;0.00;;;0.00;;
17848;SDS011;9050;48.746;9.232;2022-07-23T15:16:36;0.00;;;0.00;;
17848;SDS011;9050;48.746;9.232;2022-07-23T15:19:04;0.00;;;0.00;;